sensor_id;sensor_type;location;lat;lon;timestamp;pressure;altitude;pressure_sealevel;temperature;humidity
21588;BME280;10956;48.878;13.316;2023-02-02T00:00:47;94065.13;;;1.50;100.00
21588;BME280;10956;48.878;13.316;2023-02-02T00:03:12;94063.06;;;1.58;100.00
21588;BME280;10956;48.878;13.316;2023-02-02T00:05:37;94063.47;;;1.55;100.00
21588;BME280;10956;48.878;13.316;2023-02-02T00:08:03;94055.69;;;1.55;100.00
21588;BME280;10956;48.878;13.316;2023-02-02T00:10:28;94056.75;;;1.48;100.00
21588;BME280;10956;48.878;13.316;2023-02-02T00:12:54;94050.69;;;1.54;100.00
21588;BME280;10956;48.878;13.316;2023-02-02T00:15:23;94051.56;;;1.48;100.00
21588;BME280;10956;48.878;13.316;2023-02-02T00:17:48;94054.53;;;1.51;100.00
21588;BME280;10956;48.878;13.316;2023-02-02T00:20:14;94048.16;;;1.47;100.00
21588;BME280;10956;48.878;13.316;2023-02-02T00:22:40;94049.97;;;1.47;100.00
21588;BME280;10956;48.878;13.316;2023-02-02T00:25:06;94052.81;;;1.39;100.00
21588;BME280;10956;48.878;13.316;2023-02-02T00:27:31;94060.84;;;1.37;100.00
21588;BME280;10956;48.878;13.316;2023-02-02T00:29:57;94059.19;;;1.43;100.00
21588;BME280;10956;48.878;13.316;2023-02-02T00:32:22;94064.84;;;1.33;100.00
21588;BME280;10956;48.878;13.316;2023-02-02T00:34:48;94068.63;;;1.37;100.00
21588;BME280;10956;48.878;13.316;2023-02-02T00:37:13;94060.84;;;1.37;100.00
21588;BME280;10956;48.878;13.316;2023-02-02T00:39:38;94055.63;;;1.37;100.00
21588;BME280;10956;48.878;13.316;2023-02-02T00:42:04;94064.81;;;1.40;100.00
21588;BME280;10956;48.878;13.316;2023-02-02T00:44:29;94065.59;;;1.40;100.00
21588;BME280;10956;48.878;13.316;2023-02-02T00:47:13;94074.41;;;1.39;100.00
21588;BME280;10956;48.878;13.316;2023-02-02T00:49:38;94075.56;;;1.43;100.00
21588;BME280;10956;48.878;13.316;2023-02-02T00:52:04;94084.31;;;1.49;100.00
21588;BME280;10956;48.878;13.316;2023-02-02T00:54:29;94091.47;;;1.53;100.00
21588;BME280;10956;48.878;13.316;2023-02-02T00:56:55;94099.84;;;1.55;100.00
21588;BME280;10956;48.878;13.316;2023-02-02T00:59:20;94097.66;;;1.52;100.00
21588;BME280;10956;48.878;13.316;2023-02-02T01:01:46;94117.91;;;1.44;100.00
21588;BME280;10956;48.878;13.316;2023-02-02T01:04:11;94143.91;;;1.37;100.00
21588;BME280;10956;48.878;13.316;2023-02-02T01:06:36;94153.97;;;1.27;100.00
21588;BME280;10956;48.878;13.316;2023-02-02T01:09:03;94156.81;;;1.19;100.00
21588;BME280;10956;48.878;13.316;2023-02-02T01:11:28;94134.53;;;1.05;100.00
21588;BME280;10956;48.878;13.316;2023-02-02T01:13:55;94123.97;;;1.00;100.00
21588;BME280;10956;48.878;13.316;2023-02-02T01:16:21;94123.16;;;1.06;100.00
21588;BME280;10956;48.878;13.316;2023-02-02T01:18:47;94116.19;;;1.00;100.00
21588;BME280;10956;48.878;13.316;2023-02-02T01:21:12;94124.81;;;0.93;100.00
21588;BME280;10956;48.878;13.316;2023-02-02T01:23:38;94104.63;;;0.95;100.00
21588;BME280;10956;48.878;13.316;2023-02-02T01:26:06;94108.81;;;0.96;100.00
21588;BME280;10956;48.878;13.316;2023-02-02T01:28:32;94113.38;;;1.01;100.00
21588;BME280;10956;48.878;13.316;2023-02-02T01:31:04;94126.03;;;0.91;100.00
21588;BME280;10956;48.878;13.316;2023-02-02T01:33:30;94123.44;;;0.91;100.00
21588;BME280;10956;48.878;13.316;2023-02-02T01:35:55;94128.22;;;0.87;100.00
21588;BME280;10956;48.878;13.316;2023-02-02T01:38:22;94150.16;;;0.91;100.00
21588;BME280;10956;48.878;13.316;2023-02-02T01:40:51;94147.78;;;0.90;100.00
21588;BME280;10956;48.878;13.316;2023-02-02T01:43:29;94166.91;;;0.95;100.00
21588;BME280;10956;48.878;13.316;2023-02-02T01:45:57;94170.91;;;0.91;100.00
21588;BME280;10956;48.878;13.316;2023-02-02T01:48:33;94164.78;;;0.79;100.00
21588;BME280;10956;48.878;13.316;2023-02-02T01:51:04;94164.19;;;0.77;100.00
21588;BME280;10956;48.878;13.316;2023-02-02T01:53:31;94151.50;;;0.62;100.00
21588;BME280;10956;48.878;13.316;2023-02-02T01:55:57;94142.72;;;0.57;100.00
21588;BME280;10956;48.878;13.316;2023-02-02T01:58:35;94139.19;;;0.45;100.00
21588;BME280;10956;48.878;13.316;2023-02-02T02:01:02;94140.38;;;0.42;100.00
21588;BME280;10956;48.878;13.316;2023-02-02T02:03:30;94154.34;;;0.41;100.00
21588;BME280;10956;48.878;13.316;2023-02-02T02:06:04;94152.78;;;0.34;100.00
21588;BME280;10956;48.878;13.316;2023-02-02T02:08:48;94153.56;;;0.41;100.00
21588;BME280;10956;48.878;13.316;2023-02-02T02:11:17;94148.16;;;0.42;100.00
21588;BME280;10956;48.878;13.316;2023-02-02T02:13:43;94140.97;;;0.44;100.00
21588;BME280;10956;48.878;13.316;2023-02-02T02:21:44;94142.78;;;0.44;100.00
21588;BME280;10956;48.878;13.316;2023-02-02T02:31:00;94134.59;;;0.47;100.00
21588;BME280;10956;48.878;13.316;2023-02-02T02:34:23;94127.41;;;0.49;100.00
21588;BME280;10956;48.878;13.316;2023-02-02T02:36:41;94126.41;;;0.50;100.00
21588;BME280;10956;48.878;13.316;2023-02-02T02:41:44;94118.03;;;0.48;100.00
21588;BME280;10956;48.878;13.316;2023-02-02T02:44:15;94104.25;;;0.54;100.00
21588;BME280;10956;48.878;13.316;2023-02-02T02:46:41;94116.22;;;0.55;100.00
21588;BME280;10956;48.878;13.316;2023-02-02T02:49:11;94100.84;;;0.53;100.00
21588;BME280;10956;48.878;13.316;2023-02-02T02:54:15;94113.63;;;0.55;100.00
21588;BME280;10956;48.878;13.316;2023-02-02T02:59:31;94117.56;;;0.64;100.00
21588;BME280;10956;48.878;13.316;2023-02-02T03:10:30;94157.09;;;0.53;100.00
21588;BME280;10956;48.878;13.316;2023-02-02T03:12:56;94150.13;;;0.53;100.00
21588;BME280;10956;48.878;13.316;2023-02-02T03:15:22;94161.50;;;0.46;100.00
21588;BME280;10956;48.878;13.316;2023-02-02T03:17:49;94167.91;;;0.43;100.00
21588;BME280;10956;48.878;13.316;2023-02-02T03:20:16;94160.34;;;0.42;100.00
21588;BME280;10956;48.878;13.316;2023-02-02T03:22:42;94165.53;;;0.42;100.00
21588;BME280;10956;48.878;13.316;2023-02-02T03:25:07;94158.97;;;0.32;100.00
21588;BME280;10956;48.878;13.316;2023-02-02T03:27:36;94165.34;;;0.37;100.00
21588;BME280;10956;48.878;13.316;2023-02-02T03:30:04;94147.59;;;0.34;100.00
21588;BME280;10956;48.878;13.316;2023-02-02T03:32:30;94156.38;;;0.32;100.00
21588;BME280;10956;48.878;13.316;2023-02-02T03:34:56;94169.50;;;0.44;100.00
21588;BME280;10956;48.878;13.316;2023-02-02T03:37:21;94156.91;;;0.48;100.00
21588;BME280;10956;48.878;13.316;2023-02-02T03:39:47;94164.69;;;0.48;100.00
21588;BME280;10956;48.878;13.316;2023-02-02T03:42:12;94165.50;;;0.48;100.00
21588;BME280;10956;48.878;13.316;2023-02-02T03:44:37;94163.06;;;0.60;100.00
21588;BME280;10956;48.878;13.316;2023-02-02T03:47:03;94164.88;;;0.59;100.00
21588;BME280;10956;48.878;13.316;2023-02-02T03:49:28;94160.09;;;0.56;100.00
21588;BME280;10956;48.878;13.316;2023-02-02T03:51:54;94173.06;;;0.50;100.00
21588;BME280;10956;48.878;13.316;2023-02-02T03:54:19;94158.28;;;0.57;100.00
21588;BME280;10956;48.878;13.316;2023-02-02T03:56:44;94161.47;;;0.59;100.00
21588;BME280;10956;48.878;13.316;2023-02-02T03:59:10;94179.03;;;0.57;100.00
21588;BME280;10956;48.878;13.316;2023-02-02T04:01:35;94172.47;;;0.48;100.00
21588;BME280;10956;48.878;13.316;2023-02-02T04:04:01;94168.69;;;0.44;100.00
21588;BME280;10956;48.878;13.316;2023-02-02T04:06:26;94182.84;;;0.48;100.00
21588;BME280;10956;48.878;13.316;2023-02-02T04:08:52;94186.44;;;0.53;100.00
21588;BME280;10956;48.878;13.316;2023-02-02T04:11:17;94188.03;;;0.48;100.00
21588;BME280;10956;48.878;13.316;2023-02-02T04:13:43;94199.00;;;0.50;100.00
21588;BME280;10956;48.878;13.316;2023-02-02T04:16:09;94208.19;;;0.46;100.00
21588;BME280;10956;48.878;13.316;2023-02-02T04:18:35;94207.00;;;0.42;100.00
21588;BME280;10956;48.878;13.316;2023-02-02T04:21:05;94200.25;;;0.27;100.00
21588;BME280;10956;48.878;13.316;2023-02-02T04:23:31;94203.84;;;0.26;100.00
21588;BME280;10956;48.878;13.316;2023-02-02T04:25:58;94179.09;;;0.30;100.00
21588;BME280;10956;48.878;13.316;2023-02-02T04:28:24;94175.50;;;0.31;100.00
21588;BME280;10956;48.878;13.316;2023-02-02T04:30:50;94179.88;;;0.38;100.00
21588;BME280;10956;48.878;13.316;2023-02-02T04:33:16;94174.31;;;0.27;100.00
21588;BME280;10956;48.878;13.316;2023-02-02T04:35:42;94174.50;;;0.32;100.00
21588;BME280;10956;48.878;13.316;2023-02-02T04:38:08;94189.88;;;0.27;100.00
21588;BME280;10956;48.878;13.316;2023-02-02T04:40:37;94186.47;;;0.34;100.00
21588;BME280;10956;48.878;13.316;2023-02-02T04:43:02;94175.13;;;0.28;100.00
21588;BME280;10956;48.878;13.316;2023-02-02T04:45:28;94200.66;;;0.24;100.00
21588;BME280;10956;48.878;13.316;2023-02-02T04:47:53;94188.28;;;0.26;100.00
21588;BME280;10956;48.878;13.316;2023-02-02T04:50:19;94204.63;;;0.34;100.00
21588;BME280;10956;48.878;13.316;2023-02-02T04:52:44;94199.81;;;0.37;100.00
21588;BME280;10956;48.878;13.316;2023-02-02T04:55:09;94215.16;;;0.45;100.00
21588;BME280;10956;48.878;13.316;2023-02-02T04:57:35;94213.19;;;0.34;100.00
21588;BME280;10956;48.878;13.316;2023-02-02T05:00:00;94216.59;;;0.28;100.00
21588;BME280;10956;48.878;13.316;2023-02-02T05:02:26;94220.16;;;0.34;100.00
21588;BME280;10956;48.878;13.316;2023-02-02T05:04:51;94224.16;;;0.43;100.00
21588;BME280;10956;48.878;13.316;2023-02-02T05:07:17;94223.34;;;0.42;100.00
21588;BME280;10956;48.878;13.316;2023-02-02T05:09:42;94217.38;;;0.42;100.00
21588;BME280;10956;48.878;13.316;2023-02-02T05:12:07;94228.53;;;0.49;100.00
21588;BME280;10956;48.878;13.316;2023-02-02T05:14:33;94216.75;;;0.53;100.00
21588;BME280;10956;48.878;13.316;2023-02-02T05:16:58;94217.75;;;0.52;100.00
21588;BME280;10956;48.878;13.316;2023-02-02T05:19:24;94215.38;;;0.44;100.00
21588;BME280;10956;48.878;13.316;2023-02-02T05:21:49;94216.19;;;0.38;100.00
21588;BME280;10956;48.878;13.316;2023-02-02T05:24:14;94215.00;;;0.34;100.00
21588;BME280;10956;48.878;13.316;2023-02-02T05:26:40;94208.63;;;0.29;100.00
21588;BME280;10956;48.878;13.316;2023-02-02T05:29:06;94211.41;;;0.28;100.00
21588;BME280;10956;48.878;13.316;2023-02-02T05:31:33;94222.19;;;0.18;100.00
21588;BME280;10956;48.878;13.316;2023-02-02T05:33:58;94232.94;;;0.22;100.00
21588;BME280;10956;48.878;13.316;2023-02-02T05:36:24;94233.13;;;0.27;100.00
21588;BME280;10956;48.878;13.316;2023-02-02T05:38:50;94238.13;;;0.28;100.00
21588;BME280;10956;48.878;13.316;2023-02-02T05:41:15;94238.09;;;0.42;100.00
21588;BME280;10956;48.878;13.316;2023-02-02T05:43:40;94245.69;;;0.37;100.00
21588;BME280;10956;48.878;13.316;2023-02-02T05:46:06;94252.88;;;0.35;100.00
21588;BME280;10956;48.878;13.316;2023-02-02T05:48:31;94257.25;;;0.41;100.00
21588;BME280;10956;48.878;13.316;2023-02-02T05:53:29;94270.41;;;0.39;100.00
21588;BME280;10956;48.878;13.316;2023-02-02T05:55:55;94274.81;;;0.32;100.00
21588;BME280;10956;48.878;13.316;2023-02-02T05:58:20;94291.56;;;0.36;100.00
21588;BME280;10956;48.878;13.316;2023-02-02T06:00:46;94307.69;;;0.31;100.00
21588;BME280;10956;48.878;13.316;2023-02-02T06:03:11;94297.72;;;0.35;100.00
21588;BME280;10956;48.878;13.316;2023-02-02T06:05:37;94297.13;;;0.40;100.00
21588;BME280;10956;48.878;13.316;2023-02-02T06:08:03;94302.72;;;0.43;100.00
21588;BME280;10956;48.878;13.316;2023-02-02T06:10:28;94313.47;;;0.47;100.00
21588;BME280;10956;48.878;13.316;2023-02-02T06:12:56;94324.06;;;0.52;100.00
21588;BME280;10956;48.878;13.316;2023-02-02T06:15:21;94323.06;;;0.53;100.00
21588;BME280;10956;48.878;13.316;2023-02-02T06:17:47;94329.84;;;0.54;100.00
21588;BME280;10956;48.878;13.316;2023-02-02T06:20:12;94325.44;;;0.48;100.00
21588;BME280;10956;48.878;13.316;2023-02-02T06:22:38;94308.28;;;0.47;100.00
21588;BME280;10956;48.878;13.316;2023-02-02T06:25:03;94326.66;;;0.45;100.00
21588;BME280;10956;48.878;13.316;2023-02-02T06:27:30;94315.06;;;0.54;100.00
21588;BME280;10956;48.878;13.316;2023-02-02T06:29:55;94307.50;;;0.53;100.00
21588;BME280;10956;48.878;13.316;2023-02-02T06:32:21;94311.88;;;0.52;100.00
21588;BME280;10956;48.878;13.316;2023-02-02T06:34:46;94319.06;;;0.57;100.00
21588;BME280;10956;48.878;13.316;2023-02-02T06:37:11;94318.25;;;0.63;100.00
21588;BME280;10956;48.878;13.316;2023-02-02T06:39:37;94315.88;;;0.61;100.00
21588;BME280;10956;48.878;13.316;2023-02-02T06:42:02;94307.09;;;0.56;100.00
21588;BME280;10956;48.878;13.316;2023-02-02T06:44:28;94315.66;;;0.63;100.00
21588;BME280;10956;48.878;13.316;2023-02-02T06:46:53;94307.06;;;0.69;100.00
21588;BME280;10956;48.878;13.316;2023-02-02T06:49:19;94314.25;;;0.67;100.00
21588;BME280;10956;48.878;13.316;2023-02-02T06:51:46;94322.25;;;0.72;100.00
21588;BME280;10956;48.878;13.316;2023-02-02T06:54:12;94322.25;;;0.72;100.00
21588;BME280;10956;48.878;13.316;2023-02-02T06:56:38;94324.63;;;0.67;100.00
21588;BME280;10956;48.878;13.316;2023-02-02T06:59:04;94335.00;;;0.74;100.00
21588;BME280;10956;48.878;13.316;2023-02-02T07:01:30;94317.44;;;0.69;100.00
21588;BME280;10956;48.878;13.316;2023-02-02T07:03:56;94321.22;;;0.80;100.00
21588;BME280;10956;48.878;13.316;2023-02-02T07:06:24;94316.84;;;0.80;100.00
21588;BME280;10956;48.878;13.316;2023-02-02T07:08:51;94325.41;;;0.81;100.00
21588;BME280;10956;48.878;13.316;2023-02-02T07:11:17;94313.84;;;0.83;100.00
21588;BME280;10956;48.878;13.316;2023-02-02T07:13:44;94321.63;;;0.83;100.00
21588;BME280;10956;48.878;13.316;2023-02-02T07:16:10;94329.81;;;0.80;100.00
21588;BME280;10956;48.878;13.316;2023-02-02T07:18:39;94332.22;;;0.62;100.00
21588;BME280;10956;48.878;13.316;2023-02-02T07:21:05;94345.78;;;0.64;100.00
21588;BME280;10956;48.878;13.316;2023-02-02T07:23:32;94342.97;;;0.72;100.00
21588;BME280;10956;48.878;13.316;2023-02-02T07:28:26;94346.78;;;0.76;100.00
21588;BME280;10956;48.878;13.316;2023-02-02T07:30:52;94337.00;;;0.78;100.00
21588;BME280;10956;48.878;13.316;2023-02-02T07:33:17;94341.75;;;0.94;100.00
21588;BME280;10956;48.878;13.316;2023-02-02T07:35:43;94346.56;;;0.84;100.00
21588;BME280;10956;48.878;13.316;2023-02-02T07:38:08;94348.56;;;0.89;100.00
21588;BME280;10956;48.878;13.316;2023-02-02T07:40:33;94348.56;;;0.89;100.00
21588;BME280;10956;48.878;13.316;2023-02-02T07:42:59;94357.72;;;0.91;100.00
21588;BME280;10956;48.878;13.316;2023-02-02T07:45:26;94357.53;;;0.93;100.00
21588;BME280;10956;48.878;13.316;2023-02-02T07:47:58;94350.13;;;0.96;100.00
21588;BME280;10956;48.878;13.316;2023-02-02T07:50:25;94356.50;;;1.01;100.00
21588;BME280;10956;48.878;13.316;2023-02-02T07:52:52;94358.50;;;0.99;100.00
21588;BME280;10956;48.878;13.316;2023-02-02T07:55:17;94366.91;;;1.01;100.00
21588;BME280;10956;48.878;13.316;2023-02-02T07:57:43;94362.91;;;1.05;100.00
21588;BME280;10956;48.878;13.316;2023-02-02T08:00:09;94366.09;;;1.07;100.00
21588;BME280;10956;48.878;13.316;2023-02-02T08:02:35;94370.28;;;1.08;100.00
21588;BME280;10956;48.878;13.316;2023-02-02T08:05:00;94368.47;;;1.15;100.00
21588;BME280;10956;48.878;13.316;2023-02-02T08:07:26;94374.84;;;1.25;100.00
21588;BME280;10956;48.878;13.316;2023-02-02T08:09:51;94368.44;;;1.28;100.00
21588;BME280;10956;48.878;13.316;2023-02-02T08:12:18;94370.44;;;1.26;100.00
21588;BME280;10956;48.878;13.316;2023-02-02T08:14:44;94375.41;;;1.34;100.00
21588;BME280;10956;48.878;13.316;2023-02-02T08:17:09;94372.84;;;1.21;100.00
21588;BME280;10956;48.878;13.316;2023-02-02T08:19:34;94375.22;;;1.29;100.00
21588;BME280;10956;48.878;13.316;2023-02-02T08:22:00;94369.25;;;1.22;100.00
21588;BME280;10956;48.878;13.316;2023-02-02T08:24:25;94371.84;;;1.22;100.00
21588;BME280;10956;48.878;13.316;2023-02-02T08:26:50;94387.59;;;1.34;100.00
21588;BME280;10956;48.878;13.316;2023-02-02T08:29:16;94379.19;;;1.38;100.00
21588;BME280;10956;48.878;13.316;2023-02-02T08:31:43;94381.59;;;1.33;100.00
21588;BME280;10956;48.878;13.316;2023-02-02T08:34:10;94374.84;;;1.19;100.00
21588;BME280;10956;48.878;13.316;2023-02-02T08:36:36;94386.00;;;1.26;100.00
21588;BME280;10956;48.878;13.316;2023-02-02T08:39:05;94390.38;;;1.32;100.00
21588;BME280;10956;48.878;13.316;2023-02-02T08:41:31;94383.81;;;1.23;100.00
21588;BME280;10956;48.878;13.316;2023-02-02T08:43:57;94388.81;;;1.18;100.00
21588;BME280;10956;48.878;13.316;2023-02-02T08:46:23;94389.19;;;1.28;100.00
21588;BME280;10956;48.878;13.316;2023-02-02T08:48:49;94395.19;;;1.35;100.00
21588;BME280;10956;48.878;13.316;2023-02-02T08:51:16;94396.78;;;1.36;100.00
21588;BME280;10956;48.878;13.316;2023-02-02T08:53:42;94395.59;;;1.32;100.00
21588;BME280;10956;48.878;13.316;2023-02-02T08:56:10;94387.97;;;1.37;100.00
21588;BME280;10956;48.878;13.316;2023-02-02T08:58:36;94382.59;;;1.32;100.00
21588;BME280;10956;48.878;13.316;2023-02-02T09:01:08;94392.59;;;1.22;100.00
21588;BME280;10956;48.878;13.316;2023-02-02T09:03:35;94376.81;;;1.30;100.00
21588;BME280;10956;48.878;13.316;2023-02-02T09:06:09;94387.97;;;1.37;100.00
21588;BME280;10956;48.878;13.316;2023-02-02T09:08:35;94391.94;;;1.46;100.00
21588;BME280;10956;48.878;13.316;2023-02-02T09:11:06;94389.53;;;1.51;100.00
21588;BME280;10956;48.878;13.316;2023-02-02T09:13:33;94391.53;;;1.49;100.00
21588;BME280;10956;48.878;13.316;2023-02-02T09:16:00;94389.97;;;1.42;100.00
21588;BME280;10956;48.878;13.316;2023-02-02T09:18:26;94403.53;;;1.50;100.00
21588;BME280;10956;48.878;13.316;2023-02-02T09:20:51;94397.50;;;1.56;100.00
21588;BME280;10956;48.878;13.316;2023-02-02T09:23:16;94392.13;;;1.51;100.00
21588;BME280;10956;48.878;13.316;2023-02-02T09:25:42;94396.31;;;1.59;100.00
21588;BME280;10956;48.878;13.316;2023-02-02T09:28:07;94405.91;;;1.58;100.00
21588;BME280;10956;48.878;13.316;2023-02-02T09:30:33;94404.94;;;1.46;100.00
21588;BME280;10956;48.878;13.316;2023-02-02T09:32:58;94405.13;;;1.45;100.00
21588;BME280;10956;48.878;13.316;2023-02-02T09:35:23;94400.97;;;1.37;100.00
21588;BME280;10956;48.878;13.316;2023-02-02T09:37:49;94405.13;;;1.51;100.00
21588;BME280;10956;48.878;13.316;2023-02-02T09:40:16;94413.88;;;1.64;100.00
21588;BME280;10956;48.878;13.316;2023-02-02T09:48:47;94409.88;;;1.68;100.00
21588;BME280;10956;48.878;13.316;2023-02-02T09:51:19;94409.44;;;1.71;100.00
21588;BME280;10956;48.878;13.316;2023-02-02T09:53:58;94416.66;;;1.69;100.00
21588;BME280;10956;48.878;13.316;2023-02-02T09:56:37;94414.69;;;1.57;100.00
21588;BME280;10956;48.878;13.316;2023-02-02T09:59:05;94427.25;;;1.60;100.00
21588;BME280;10956;48.878;13.316;2023-02-02T10:01:35;94427.69;;;1.57;100.00
21588;BME280;10956;48.878;13.316;2023-02-02T10:04:10;94435.88;;;1.54;100.00
21588;BME280;10956;48.878;13.316;2023-02-02T10:06:40;94434.28;;;1.53;100.00
21588;BME280;10956;48.878;13.316;2023-02-02T10:14:47;94427.03;;;1.75;100.00
21588;BME280;10956;48.878;13.316;2023-02-02T10:16:53;94427.75;;;1.89;100.00
21588;BME280;10956;48.878;13.316;2023-02-02T10:19:22;94434.16;;;1.93;100.00
21588;BME280;10956;48.878;13.316;2023-02-02T10:22:03;94432.38;;;1.87;100.00
21588;BME280;10956;48.878;13.316;2023-02-02T10:24:31;94428.34;;;1.91;100.00
21588;BME280;10956;48.878;13.316;2023-02-02T10:27:05;94424.09;;;2.03;100.00
21588;BME280;10956;48.878;13.316;2023-02-02T10:29:52;94430.97;;;1.91;100.00
21588;BME280;10956;48.878;13.316;2023-02-02T10:35:58;94427.13;;;2.00;100.00
21588;BME280;10956;48.878;13.316;2023-02-02T10:41:25;94420.19;;;1.87;100.00
21588;BME280;10956;48.878;13.316;2023-02-02T10:46:50;94430.00;;;1.79;100.00
21588;BME280;10956;48.878;13.316;2023-02-02T10:49:32;94425.44;;;1.74;100.00
21588;BME280;10956;48.878;13.316;2023-02-02T10:52:12;94433.78;;;1.83;100.00
21588;BME280;10956;48.878;13.316;2023-02-02T10:57:11;94434.97;;;1.87;100.00
21588;BME280;10956;48.878;13.316;2023-02-02T11:02:31;94428.19;;;1.86;100.00
21588;BME280;10956;48.878;13.316;2023-02-02T11:04:57;94425.00;;;1.84;100.00
21588;BME280;10956;48.878;13.316;2023-02-02T11:07:41;94422.97;;;1.86;100.00
21588;BME280;10956;48.878;13.316;2023-02-02T11:10:06;94425.78;;;1.84;100.00
21588;BME280;10956;48.878;13.316;2023-02-02T11:12:44;94415.38;;;1.91;100.00
21588;BME280;10956;48.878;13.316;2023-02-02T11:15:29;94420.56;;;1.91;100.00
21588;BME280;10956;48.878;13.316;2023-02-02T11:17:54;94420.91;;;2.01;100.00
21588;BME280;10956;48.878;13.316;2023-02-02T11:20:31;94426.06;;;2.14;100.00
21588;BME280;10956;48.878;13.316;2023-02-02T11:23:02;94424.44;;;2.20;100.00
21588;BME280;10956;48.878;13.316;2023-02-02T11:25:36;94422.88;;;2.12;100.00
21588;BME280;10956;48.878;13.316;2023-02-02T11:28:21;94422.91;;;2.06;100.00
21588;BME280;10956;48.878;13.316;2023-02-02T11:30:50;94429.72;;;2.00;100.00
21588;BME280;10956;48.878;13.316;2023-02-02T11:33:31;94414.88;;;2.07;100.00
21588;BME280;10956;48.878;13.316;2023-02-02T11:36:20;94417.50;;;2.07;100.00
21588;BME280;10956;48.878;13.316;2023-02-02T11:38:46;94415.47;;;2.09;100.00
21588;BME280;10956;48.878;13.316;2023-02-02T11:41:11;94421.72;;;2.02;100.00
21588;BME280;10956;48.878;13.316;2023-02-02T11:43:39;94420.56;;;1.91;100.00
21588;BME280;10956;48.878;13.316;2023-02-02T11:46:23;94418.94;;;1.97;100.00
21588;BME280;10956;48.878;13.316;2023-02-02T11:49:01;94423.75;;;1.93;100.00
21588;BME280;10956;48.878;13.316;2023-02-02T11:51:28;94423.41;;;1.83;100.00
21588;BME280;10956;48.878;13.316;2023-02-02T11:56:31;94415.38;;;1.91;100.00
21588;BME280;10956;48.878;13.316;2023-02-02T11:58:57;94414.19;;;1.87;100.00
21588;BME280;10956;48.878;13.316;2023-02-02T12:01:27;94414.94;;;1.94;100.00
21588;BME280;10956;48.878;13.316;2023-02-02T12:03:58;94412.34;;;1.94;100.00
21588;BME280;10956;48.878;13.316;2023-02-02T12:06:34;94418.53;;;2.00;100.00
21588;BME280;10956;48.878;13.316;2023-02-02T12:09:01;94423.28;;;2.09;100.00
21588;BME280;10956;48.878;13.316;2023-02-02T12:17:00;94419.72;;;1.97;100.00
21588;BME280;10956;48.878;13.316;2023-02-02T12:22:28;94412.19;;;1.82;100.00
21588;BME280;10956;48.878;13.316;2023-02-02T12:27:54;94419.56;;;1.92;100.00
21588;BME280;10956;48.878;13.316;2023-02-02T12:30:32;94417.41;;;1.82;100.00
21588;BME280;10956;48.878;13.316;2023-02-02T12:35:45;94413.31;;;2.00;100.00
21588;BME280;10956;48.878;13.316;2023-02-02T12:43:37;94427.72;;;2.02;100.00
21588;BME280;10956;48.878;13.316;2023-02-02T12:49:10;94428.53;;;1.96;100.00
21588;BME280;10956;48.878;13.316;2023-02-02T12:51:57;94427.53;;;1.97;100.00
21588;BME280;10956;48.878;13.316;2023-02-02T12:57:17;94423.22;;;2.22;100.00
21588;BME280;10956;48.878;13.316;2023-02-02T13:07:41;94434.09;;;2.06;100.00
21588;BME280;10956;48.878;13.316;2023-02-02T13:10:20;94435.69;;;2.07;100.00
21588;BME280;10956;48.878;13.316;2023-02-02T13:12:56;94446.84;;;2.14;100.00
21588;BME280;10956;48.878;13.316;2023-02-02T13:15:39;94442.84;;;2.18;100.00
21588;BME280;10956;48.878;13.316;2023-02-02T13:18:18;94440.25;;;2.12;100.00
21588;BME280;10956;48.878;13.316;2023-02-02T13:20:49;94442.09;;;2.05;100.00
21588;BME280;10956;48.878;13.316;2023-02-02T13:23:31;94444.91;;;2.03;100.00
21588;BME280;10956;48.878;13.316;2023-02-02T13:26:09;94438.94;;;1.96;100.00
21588;BME280;10956;48.878;13.316;2023-02-02T13:31:47;94449.91;;;1.98;100.00
21588;BME280;10956;48.878;13.316;2023-02-02T13:34:17;94449.34;;;1.96;100.00
21588;BME280;10956;48.878;13.316;2023-02-02T13:36:58;94454.94;;;1.93;100.00
21588;BME280;10956;48.878;13.316;2023-02-02T13:39:37;94458.31;;;2.00;100.00
21588;BME280;10956;48.878;13.316;2023-02-02T13:42:07;94446.56;;;1.91;100.00
21588;BME280;10956;48.878;13.316;2023-02-02T13:44:46;94456.13;;;1.97;100.00
21588;BME280;10956;48.878;13.316;2023-02-02T13:47:22;94463.50;;;2.00;100.00
21588;BME280;10956;48.878;13.316;2023-02-02T13:49:59;94465.91;;;2.02;100.00
21588;BME280;10956;48.878;13.316;2023-02-02T13:52:48;94461.72;;;1.94;100.00
21588;BME280;10956;48.878;13.316;2023-02-02T13:55:37;94459.25;;;2.12;100.00
21588;BME280;10956;48.878;13.316;2023-02-02T14:01:04;94468.13;;;1.91;100.00
21588;BME280;10956;48.878;13.316;2023-02-02T14:03:41;94472.53;;;1.98;100.00
21588;BME280;10956;48.878;13.316;2023-02-02T14:06:14;94475.72;;;1.93;100.00
21588;BME280;10956;48.878;13.316;2023-02-02T14:08:53;94479.28;;;2.05;100.00
21588;BME280;10956;48.878;13.316;2023-02-02T14:11:51;94482.09;;;2.04;100.00
21588;BME280;10956;48.878;13.316;2023-02-02T14:14:21;94481.88;;;2.05;100.00
21588;BME280;10956;48.878;13.316;2023-02-02T14:16:58;94489.69;;;2.05;100.00
21588;BME280;10956;48.878;13.316;2023-02-02T14:24:41;94490.06;;;2.09;100.00
21588;BME280;10956;48.878;13.316;2023-02-02T14:34:54;94511.28;;;1.99;100.00
21588;BME280;10956;48.878;13.316;2023-02-02T14:40:00;94521.31;;;1.96;100.00
21588;BME280;10956;48.878;13.316;2023-02-02T14:45:47;94522.50;;;1.93;100.00
21588;BME280;10956;48.878;13.316;2023-02-02T14:48:22;94525.91;;;1.93;100.00
21588;BME280;10956;48.878;13.316;2023-02-02T14:53:30;94535.69;;;2.05;100.00
21588;BME280;10956;48.878;13.316;2023-02-02T14:56:12;94527.66;;;2.06;100.00
21588;BME280;10956;48.878;13.316;2023-02-02T14:58:54;94536.09;;;2.02;100.00
21588;BME280;10956;48.878;13.316;2023-02-02T15:01:27;94532.28;;;2.04;100.00